Time;durP1;ratioP1;P1;durP2;ratioP2;P2;SDS_P1;SDS_P2;PMS_P1;PMS_P2;Temp;Humidity;BMP_temperature;BMP_pressure;BME280_temperature;BME280_humidity;BME280_pressure;Samples;Min_cycle;Max_cycle;Signal;HPM_P1;HPM_P2
2022/03/19 00:01:18;;;;;;;11.40;1.83;;;;;;;;;;4897351;29;20143;-71
2022/03/19 00:03:45;;;;;;;11.75;1.75;;;;;;;;;;4897845;29;21777;-71
2022/03/19 00:06:12;;;;;;;6.03;1.70;;;;;;;;;;4895976;29;20473;-70
2022/03/19 00:08:39;;;;;;;7.80;2.13;;;;;;;;;;4896514;29;20399;-71
2022/03/19 00:11:13;;;;;;;15.25;2.60;;;;;;;;;;4905498;29;20304;-70
2022/03/19 00:13:39;;;;;;;5.53;1.70;;;;;;;;;;4904178;29;20084;-71
2022/03/19 00:16:05;;;;;;;12.50;1.77;;;;;;;;;;4900614;29;20117;-71
2022/03/19 00:18:37;;;;;;;5.05;1.55;;;;;;;;;;4915819;29;20478;-71
2022/03/19 00:21:03;;;;;;;8.95;2.00;;;;;;;;;;4920940;29;20578;-71
2022/03/19 00:23:30;;;;;;;10.00;2.13;;;;;;;;;;4921816;29;20175;-71
2022/03/19 00:25:57;;;;;;;16.38;2.13;;;;;;;;;;4923518;29;20687;-71
2022/03/19 00:28:23;;;;;;;10.18;2.20;;;;;;;;;;4924209;29;20087;-71
2022/03/19 00:30:55;;;;;;;9.52;1.63;;;;;;;;;;4919457;29;21125;-71
2022/03/19 00:33:25;;;;;;;8.68;2.00;;;;;;;;;;4924835;29;20531;-71
2022/03/19 00:35:52;;;;;;;4.45;1.52;;;;;;;;;;4924435;29;20416;-71
2022/03/19 00:38:19;;;;;;;12.48;3.40;;;;;;;;;;4920658;29;20059;-71
2022/03/19 00:40:52;;;;;;;10.95;2.33;;;;;;;;;;4922478;29;20090;-71
2022/03/19 00:43:21;;;;;;;9.40;2.03;;;;;;;;;;4918814;29;20116;-71
2022/03/19 00:45:48;;;;;;;13.57;1.70;;;;;;;;;;4923062;29;20122;-72
2022/03/19 00:48:16;;;;;;;6.60;1.80;;;;;;;;;;4918264;29;20142;-71
2022/03/19 00:50:43;;;;;;;5.50;1.70;;;;;;;;;;4920436;29;20131;-71
2022/03/19 00:53:09;;;;;;;9.07;2.33;;;;;;;;;;4925160;29;20134;-71
2022/03/19 00:55:49;;;;;;;8.80;2.17;;;;;;;;;;4922571;29;20052;-72
2022/03/19 00:58:16;;;;;;;8.13;1.67;;;;;;;;;;4920971;29;20088;-71
2022/03/19 01:00:42;;;;;;;5.72;1.60;;;;;;;;;;4922464;29;20187;-72
2022/03/19 01:03:16;;;;;;;4.82;1.73;;;;;;;;;;4921075;29;20064;-71
2022/03/19 01:05:43;;;;;;;7.78;1.75;;;;;;;;;;4921571;29;20107;-71
2022/03/19 01:08:11;;;;;;;10.93;1.67;;;;;;;;;;4918725;29;20083;-71
2022/03/19 01:10:45;;;;;;;7.30;1.55;;;;;;;;;;4914047;29;20143;-71
2022/03/19 01:13:11;;;;;;;5.57;1.30;;;;;;;;;;4917202;29;20088;-71
2022/03/19 01:15:38;;;;;;;9.43;1.70;;;;;;;;;;4915183;29;20574;-71
2022/03/19 01:18:08;;;;;;;10.32;1.85;;;;;;;;;;4904755;29;20056;-71
2022/03/19 01:20:34;;;;;;;13.00;1.63;;;;;;;;;;4893898;29;20079;-72
2022/03/19 01:23:01;;;;;;;9.43;1.80;;;;;;;;;;4894988;29;20143;-71
2022/03/19 01:25:28;;;;;;;4.95;1.50;;;;;;;;;;4894062;29;20139;-71
2022/03/19 01:27:54;;;;;;;3.83;1.40;;;;;;;;;;4894710;29;20098;-72
2022/03/19 01:30:21;;;;;;;7.20;1.42;;;;;;;;;;4897072;29;20339;-71
2022/03/19 01:32:50;;;;;;;7.15;1.80;;;;;;;;;;4894537;29;20135;-72
2022/03/19 01:35:17;;;;;;;11.60;1.77;;;;;;;;;;4897502;29;20135;-71
2022/03/19 01:37:44;;;;;;;8.30;1.60;;;;;;;;;;4896273;29;20445;-72
2022/03/19 01:40:18;;;;;;;9.63;1.92;;;;;;;;;;4904081;29;20135;-71
2022/03/19 01:42:49;;;;;;;5.97;1.70;;;;;;;;;;4903069;29;20110;-71
2022/03/19 01:45:17;;;;;;;8.73;2.03;;;;;;;;;;4902773;29;20092;-72
2022/03/19 01:47:47;;;;;;;11.10;1.80;;;;;;;;;;4901723;29;20079;-72
2022/03/19 01:50:14;;;;;;;6.40;2.10;;;;;;;;;;4895617;29;20063;-71
2022/03/19 01:52:41;;;;;;;11.13;2.03;;;;;;;;;;4896161;29;20120;-71
2022/03/19 01:55:09;;;;;;;15.32;1.67;;;;;;;;;;4897182;29;20626;-72
2022/03/19 01:57:37;;;;;;;4.85;1.80;;;;;;;;;;4895920;29;20717;-72
2022/03/19 02:00:04;;;;;;;5.13;1.55;;;;;;;;;;4897195;29;20048;-72
2022/03/19 02:02:33;;;;;;;5.95;2.10;;;;;;;;;;4897962;29;20135;-71
2022/03/19 02:05:01;;;;;;;11.63;1.70;;;;;;;;;;4896799;29;20055;-71
2022/03/19 02:07:28;;;;;;;13.85;1.90;;;;;;;;;;4895834;29;20695;-71
2022/03/19 02:09:57;;;;;;;5.07;1.77;;;;;;;;;;4895394;29;20163;-71
2022/03/19 02:12:23;;;;;;;11.68;2.05;;;;;;;;;;4896218;29;20340;-71
2022/03/19 02:14:50;;;;;;;13.15;2.00;;;;;;;;;;4896257;29;20131;-71
2022/03/19 02:17:18;;;;;;;12.95;1.77;;;;;;;;;;4901927;29;20270;-71
2022/03/19 02:19:50;;;;;;;12.38;2.13;;;;;;;;;;4917950;29;20058;-72
2022/03/19 02:22:17;;;;;;;5.88;1.65;;;;;;;;;;4917441;29;20435;-71
2022/03/19 02:27:31;;;;;;;5.25;1.73;;;;;;;;;;4916885;29;20613;-71
2022/03/19 02:29:58;;;;;;;12.32;1.95;;;;;;;;;;4916885;29;20130;-72
2022/03/19 02:32:25;;;;;;;9.83;1.80;;;;;;;;;;4919307;29;20147;-72
2022/03/19 02:34:52;;;;;;;10.05;2.00;;;;;;;;;;4920937;29;20337;-72
2022/03/19 02:37:19;;;;;;;11.05;1.95;;;;;;;;;;4925479;29;20130;-72
2022/03/19 02:39:46;;;;;;;9.30;1.93;;;;;;;;;;4921799;29;20094;-72
2022/03/19 02:42:15;;;;;;;7.40;1.43;;;;;;;;;;4922016;29;20099;-72
2022/03/19 02:44:42;;;;;;;6.28;1.80;;;;;;;;;;4924712;29;20391;-71
2022/03/19 02:47:08;;;;;;;9.32;2.05;;;;;;;;;;4924668;29;20497;-71
2022/03/19 02:49:35;;;;;;;14.20;2.05;;;;;;;;;;4922769;29;20079;-71
2022/03/19 02:52:02;;;;;;;3.45;1.13;;;;;;;;;;4925274;29;20127;-71
2022/03/19 02:54:29;;;;;;;4.82;1.20;;;;;;;;;;4923038;29;20095;-71
2022/03/19 02:56:56;;;;;;;8.93;2.10;;;;;;;;;;4924969;29;20094;-71
2022/03/19 02:59:23;;;;;;;;;;;;;;;;;;4927159;29;20136;-72
2022/03/19 03:01:58;;;;;;;7.70;1.88;;;;;;;;;;4922210;29;19983;-71
2022/03/19 03:04:25;;;;;;;11.32;2.10;;;;;;;;;;4925346;29;20052;-71
2022/03/19 03:06:52;;;;;;;9.13;2.40;;;;;;;;;;4924407;29;20103;-72
2022/03/19 03:09:19;;;;;;;8.65;2.08;;;;;;;;;;4924141;29;20135;-73
2022/03/19 03:11:46;;;;;;;;;;;;;;;;;;4924353;29;20135;-72
2022/03/19 03:14:13;;;;;;;13.07;2.30;;;;;;;;;;4921576;29;19926;-72
2022/03/19 03:16:40;;;;;;;;;;;;;;;;;;4920316;29;20055;-72
2022/03/19 03:19:15;;;;;;;12.00;1.80;;;;;;;;;;4921956;28;19962;-71
2022/03/19 03:21:43;;;;;;;9.38;2.10;;;;;;;;;;4924862;29;20044;-72
2022/03/19 03:24:09;;;;;;;13.25;1.55;;;;;;;;;;4926211;29;20075;-71
2022/03/19 03:26:37;;;;;;;9.35;1.88;;;;;;;;;;4923439;29;20119;-71
2022/03/19 03:29:04;;;;;;;9.95;1.80;;;;;;;;;;4925971;29;20098;-71
2022/03/19 03:31:31;;;;;;;9.48;1.80;;;;;;;;;;4921717;29;20087;-71
2022/03/19 03:33:58;;;;;;;9.10;2.35;;;;;;;;;;4927559;29;20499;-72
2022/03/19 03:36:24;;;;;;;5.80;2.10;;;;;;;;;;4924182;29;20480;-71
2022/03/19 03:38:50;;;;;;;8.20;1.60;;;;;;;;;;4920886;29;20176;-71
2022/03/19 03:41:17;;;;;;;6.15;1.55;;;;;;;;;;4923024;29;20131;-72
2022/03/19 03:43:45;;;;;;;10.05;2.30;;;;;;;;;;4922252;29;20062;-71
2022/03/19 03:46:12;;;;;;;8.90;1.67;;;;;;;;;;4923018;29;20087;-71
2022/03/19 03:48:42;;;;;;;10.77;1.75;;;;;;;;;;4926607;29;20051;-71
2022/03/19 03:51:10;;;;;;;10.77;2.58;;;;;;;;;;4920049;29;20127;-72
2022/03/19 03:53:38;;;;;;;16.00;2.35;;;;;;;;;;4923092;29;20131;-71
2022/03/19 03:56:11;;;;;;;7.57;1.90;;;;;;;;;;4920896;29;20418;-72
2022/03/19 03:58:40;;;;;;;16.67;2.15;;;;;;;;;;4923291;29;20106;-72
2022/03/19 04:01:07;;;;;;;8.50;1.73;;;;;;;;;;4918318;29;20139;-71
2022/03/19 04:03:34;;;;;;;9.73;2.45;;;;;;;;;;4923142;29;20133;-74
2022/03/19 04:06:01;;;;;;;11.65;2.03;;;;;;;;;;4918568;29;20127;-72
2022/03/19 04:08:27;;;;;;;5.45;1.73;;;;;;;;;;4922108;29;20164;-72
2022/03/19 04:10:54;;;;;;;13.25;2.10;;;;;;;;;;4920618;29;20051;-73
2022/03/19 04:13:20;;;;;;;5.82;1.85;;;;;;;;;;4921985;29;20571;-72
2022/03/19 04:15:46;;;;;;;6.63;2.10;;;;;;;;;;4918441;29;20147;-72
2022/03/19 04:18:17;;;;;;;6.35;1.90;;;;;;;;;;4920086;29;20487;-72
2022/03/19 04:20:43;;;;;;;12.25;2.10;;;;;;;;;;4920385;29;20139;-73
2022/03/19 04:23:10;;;;;;;11.93;2.00;;;;;;;;;;4923325;29;20099;-72
2022/03/19 04:25:37;;;;;;;8.82;1.35;;;;;;;;;;4920649;29;20079;-72
2022/03/19 04:28:04;;;;;;;7.90;2.00;;;;;;;;;;4920209;29;20087;-72
2022/03/19 04:30:30;;;;;;;13.90;2.22;;;;;;;;;;4919006;29;20084;-72
2022/03/19 04:33:01;;;;;;;11.30;2.43;;;;;;;;;;4905090;29;20477;-72
2022/03/19 04:38:18;;;;;;;4.70;1.50;;;;;;;;;;4921554;29;20139;-72
2022/03/19 04:40:45;;;;;;;6.68;2.03;;;;;;;;;;4914575;29;20147;-72
2022/03/19 04:43:12;;;;;;;10.43;1.90;;;;;;;;;;4917528;29;20126;-72
2022/03/19 04:45:39;;;;;;;6.72;1.42;;;;;;;;;;4916624;29;20415;-72
2022/03/19 04:48:06;;;;;;;14.43;1.77;;;;;;;;;;4910779;29;20091;-73
2022/03/19 04:50:40;;;;;;;8.43;1.88;;;;;;;;;;4916995;29;20496;-72
2022/03/19 04:53:08;;;;;;;6.40;1.90;;;;;;;;;;4916314;29;20138;-73
2022/03/19 04:55:35;;;;;;;7.15;1.88;;;;;;;;;;4920084;29;20396;-72
2022/03/19 04:58:03;;;;;;;8.98;1.98;;;;;;;;;;4910357;29;20134;-72
2022/03/19 05:00:31;;;;;;;8.40;1.88;;;;;;;;;;4915496;29;20594;-72
2022/03/19 05:03:02;;;;;;;7.05;1.90;;;;;;;;;;4897585;29;20048;-73
2022/03/19 05:05:29;;;;;;;7.97;1.88;;;;;;;;;;4921183;29;20048;-74
2022/03/19 05:07:57;;;;;;;9.35;1.70;;;;;;;;;;4919866;29;20473;-72
2022/03/19 05:13:09;;;;;;;7.72;2.25;;;;;;;;;;4911100;29;20613;-72
2022/03/19 05:15:36;;;;;;;4.03;1.63;;;;;;;;;;4924057;29;20504;-72
2022/03/19 05:18:02;;;;;;;8.57;1.48;;;;;;;;;;4923579;28;20304;-72
2022/03/19 05:20:36;;;;;;;3.40;1.55;;;;;;;;;;4924705;29;20182;-72
2022/03/19 05:23:04;;;;;;;11.43;1.65;;;;;;;;;;4920173;29;20151;-72
2022/03/19 05:25:31;;;;;;;7.43;1.90;;;;;;;;;;4916047;29;20079;-72
2022/03/19 05:27:57;;;;;;;4.43;1.40;;;;;;;;;;4916743;29;20762;-72
2022/03/19 05:30:24;;;;;;;7.73;1.50;;;;;;;;;;4921329;29;20139;-73
2022/03/19 05:32:51;;;;;;;6.03;0.90;;;;;;;;;;4921521;29;20154;-72
2022/03/19 05:35:18;;;;;;;8.68;1.63;;;;;;;;;;4921318;29;20091;-72
2022/03/19 05:37:52;;;;;;;9.07;1.55;;;;;;;;;;4908102;29;20488;-72
2022/03/19 05:40:19;;;;;;;7.57;1.85;;;;;;;;;;4923624;29;20083;-72
2022/03/19 05:42:45;;;;;;;8.98;1.67;;;;;;;;;;4922350;29;20143;-72
2022/03/19 05:45:20;;;;;;;6.53;1.45;;;;;;;;;;4920197;29;20551;-74
2022/03/19 05:47:47;;;;;;;6.20;1.52;;;;;;;;;;4915008;29;20108;-72
2022/03/19 05:50:14;;;;;;;6.28;1.33;;;;;;;;;;4911955;29;20674;-72
2022/03/19 05:52:41;;;;;;;6.22;1.70;;;;;;;;;;4910148;29;20048;-72
2022/03/19 05:55:08;;;;;;;10.00;3.28;;;;;;;;;;4924594;29;20090;-72
2022/03/19 05:57:34;;;;;;;6.28;1.67;;;;;;;;;;4923922;29;20138;-72
2022/03/19 06:00:08;;;;;;;10.95;1.70;;;;;;;;;;4927739;29;20545;-72
2022/03/19 06:02:38;;;;;;;7.15;1.70;;;;;;;;;;4923497;29;20107;-72
2022/03/19 06:05:05;;;;;;;7.50;2.17;;;;;;;;;;4926202;29;20089;-72
2022/03/19 06:07:31;;;;;;;5.70;1.65;;;;;;;;;;4927811;29;20086;-72
2022/03/19 06:09:58;;;;;;;9.35;1.92;;;;;;;;;;4923150;29;20103;-72
2022/03/19 06:12:24;;;;;;;3.77;1.47;;;;;;;;;;4923656;29;20170;-72
2022/03/19 06:14:53;;;;;;;4.15;1.30;;;;;;;;;;4924831;29;20078;-72
2022/03/19 06:17:20;;;;;;;9.65;1.63;;;;;;;;;;4924711;29;20091;-71
2022/03/19 06:19:46;;;;;;;7.50;2.38;;;;;;;;;;4927104;29;20086;-73
2022/03/19 06:22:13;;;;;;;8.50;1.40;;;;;;;;;;4928135;29;20048;-72
2022/03/19 06:24:40;;;;;;;5.00;1.80;;;;;;;;;;4925801;29;20347;-72
2022/03/19 06:27:06;;;;;;;7.30;1.80;;;;;;;;;;4926037;29;20135;-72
2022/03/19 06:29:33;;;;;;;;;;;;;;;;;;4925005;29;20484;-72
2022/03/19 06:32:00;;;;;;;7.13;2.00;;;;;;;;;;4925598;29;19923;-73
2022/03/19 06:34:29;;;;;;;6.25;1.98;;;;;;;;;;4921666;29;20083;-72
2022/03/19 06:39:43;;;;;;;8.98;2.20;;;;;;;;;;4922806;29;20106;-72
2022/03/19 06:42:17;;;;;;;10.18;2.35;;;;;;;;;;4924243;29;20088;-72
2022/03/19 06:44:43;;;;;;;5.53;1.67;;;;;;;;;;4923652;29;20130;-71
2022/03/19 06:47:09;;;;;;;11.77;2.55;;;;;;;;;;4924601;29;20076;-71
2022/03/19 06:49:39;;;;;;;10.95;2.63;;;;;;;;;;4922374;29;20087;-71
2022/03/19 06:52:05;;;;;;;8.48;2.38;;;;;;;;;;4922768;29;20052;-71
2022/03/19 06:54:33;;;;;;;7.37;2.27;;;;;;;;;;4923901;29;20082;-71
2022/03/19 06:57:06;;;;;;;13.90;2.28;;;;;;;;;;4923541;29;20135;-71
2022/03/19 06:59:32;;;;;;;9.13;2.40;;;;;;;;;;4922405;29;20143;-71
2022/03/19 07:01:59;;;;;;;10.23;2.50;;;;;;;;;;4919730;29;20138;-70
2022/03/19 07:04:27;;;;;;;11.85;2.80;;;;;;;;;;4922377;29;20063;-71
2022/03/19 07:06:54;;;;;;;6.72;2.38;;;;;;;;;;4923293;29;20495;-69
2022/03/19 07:09:27;;;;;;;9.20;2.28;;;;;;;;;;4922230;29;20139;-70
2022/03/19 07:11:55;;;;;;;10.60;2.08;;;;;;;;;;4922457;29;20105;-69
2022/03/19 07:14:22;;;;;;;16.23;2.40;;;;;;;;;;4921242;29;20135;-70
2022/03/19 07:16:48;;;;;;;9.95;2.42;;;;;;;;;;4923990;29;20056;-70
2022/03/19 07:19:15;;;;;;;8.40;2.30;;;;;;;;;;4923781;29;20059;-70
2022/03/19 07:21:42;;;;;;;11.95;2.28;;;;;;;;;;4921205;29;20167;-69
2022/03/19 07:24:08;;;;;;;17.73;3.40;;;;;;;;;;4919985;29;20126;-69
2022/03/19 07:26:36;;;;;;;7.13;1.70;;;;;;;;;;4919381;29;20056;-70
2022/03/19 07:29:04;;;;;;;7.85;1.80;;;;;;;;;;4922229;29;20047;-70
2022/03/19 07:31:30;;;;;;;10.88;1.95;;;;;;;;;;4923218;29;20075;-70
2022/03/19 07:33:57;;;;;;;6.10;2.00;;;;;;;;;;4922558;29;20417;-70
2022/03/19 07:36:23;;;;;;;9.87;2.00;;;;;;;;;;4920337;29;20499;-70
2022/03/19 07:38:56;;;;;;;6.03;1.65;;;;;;;;;;4921161;29;20515;-70
2022/03/19 07:44:15;;;;;;;4.75;1.33;;;;;;;;;;4923921;29;20229;-70
2022/03/19 07:46:42;;;;;;;4.82;1.25;;;;;;;;;;4923041;29;20587;-70
2022/03/19 07:49:10;;;;;;;11.33;1.67;;;;;;;;;;4923054;29;20511;-70
2022/03/19 07:51:43;;;;;;;5.72;1.92;;;;;;;;;;4921518;29;20049;-69
2022/03/19 07:54:09;;;;;;;7.85;2.03;;;;;;;;;;4919945;29;20498;-70
2022/03/19 07:56:35;;;;;;;9.32;3.13;;;;;;;;;;4920551;29;20088;-70
2022/03/19 07:59:02;;;;;;;4.55;1.65;;;;;;;;;;4919591;29;20143;-70
2022/03/19 08:01:28;;;;;;;6.57;1.67;;;;;;;;;;4922310;29;20139;-69
2022/03/19 08:04:00;;;;;;;3.03;1.13;;;;;;;;;;4918798;29;20052;-70
2022/03/19 08:06:28;;;;;;;4.10;1.67;;;;;;;;;;4922097;29;20177;-69
2022/03/19 08:08:54;;;;;;;8.38;1.55;;;;;;;;;;4918744;29;20075;-69
2022/03/19 08:11:20;;;;;;;3.65;1.15;;;;;;;;;;4922291;29;20079;-69
2022/03/19 08:13:50;;;;;;;2.95;1.55;;;;;;;;;;4918777;29;20143;-69
2022/03/19 08:16:16;;;;;;;3.40;1.20;;;;;;;;;;4922844;29;20187;-70
2022/03/19 08:18:43;;;;;;;7.78;1.75;;;;;;;;;;4920531;29;20067;-70
2022/03/19 08:21:10;;;;;;;2.58;1.10;;;;;;;;;;4919558;29;20072;-69
2022/03/19 08:23:37;;;;;;;6.68;1.58;;;;;;;;;;4917625;29;20135;-69
2022/03/19 08:26:03;;;;;;;2.45;1.02;;;;;;;;;;4904594;29;20084;-69
2022/03/19 08:28:30;;;;;;;5.20;1.30;;;;;;;;;;4920701;29;20113;-69
2022/03/19 08:30:58;;;;;;;3.92;1.08;;;;;;;;;;4922963;29;20135;-69
2022/03/19 08:33:27;;;;;;;4.90;1.48;;;;;;;;;;4905334;29;20150;-69
2022/03/19 08:35:55;;;;;;;9.18;1.48;;;;;;;;;;4923015;29;20134;-69
2022/03/19 08:41:06;;;;;;;2.92;1.00;;;;;;;;;;4921184;29;20386;-69
2022/03/19 08:43:34;;;;;;;2.05;1.17;;;;;;;;;;4917767;29;20059;-69
2022/03/19 08:46:01;;;;;;;3.65;1.27;;;;;;;;;;4924914;29;20079;-69
2022/03/19 08:48:28;;;;;;;2.90;1.05;;;;;;;;;;4920866;29;20099;-69
2022/03/19 08:51:39;;;;;;;4.22;0.90;;;;;;;;;;4920268;29;20432;-69
2022/03/19 08:53:46;;;;;;;2.28;0.90;;;;;;;;;;4922964;29;20060;-69
2022/03/19 08:56:13;;;;;;;4.53;1.02;;;;;;;;;;4920398;29;20080;-69
2022/03/19 08:58:39;;;;;;;2.83;1.13;;;;;;;;;;4922196;29;20134;-69
2022/03/19 09:01:07;;;;;;;3.85;1.52;;;;;;;;;;4918796;29;20570;-69
2022/03/19 09:03:34;;;;;;;3.08;1.00;;;;;;;;;;4918372;29;20052;-69
2022/03/19 09:06:00;;;;;;;1.73;0.88;;;;;;;;;;4921453;29;20060;-69
2022/03/19 09:08:28;;;;;;;2.60;0.80;;;;;;;;;;4919251;29;20504;-69
2022/03/19 09:10:56;;;;;;;5.68;1.38;;;;;;;;;;4921018;29;20083;-69
2022/03/19 09:13:22;;;;;;;2.40;1.00;;;;;;;;;;4919431;29;20779;-69
2022/03/19 09:15:50;;;;;;;2.13;0.88;;;;;;;;;;4919001;29;20164;-69
2022/03/19 09:18:16;;;;;;;3.88;1.10;;;;;;;;;;4921608;29;20056;-69
2022/03/19 09:20:43;;;;;;;4.00;1.25;;;;;;;;;;4919179;29;20527;-69
2022/03/19 09:23:10;;;;;;;3.38;1.10;;;;;;;;;;4920013;29;20461;-69
2022/03/19 09:25:37;;;;;;;4.35;0.95;;;;;;;;;;4917588;29;20084;-69
2022/03/19 09:28:03;;;;;;;3.53;0.90;;;;;;;;;;4921244;29;20084;-69
2022/03/19 09:30:30;;;;;;;2.47;1.00;;;;;;;;;;4916653;29;20448;-70
2022/03/19 09:32:57;;;;;;;3.20;1.20;;;;;;;;;;4920419;29;20083;-69
2022/03/19 09:35:42;;;;;;;3.70;1.15;;;;;;;;;;4922445;29;20495;-69
2022/03/19 09:38:08;;;;;;;5.27;1.60;;;;;;;;;;4922167;29;20052;-68
2022/03/19 09:40:36;;;;;;;3.25;1.15;;;;;;;;;;4923384;29;20463;-69
2022/03/19 09:43:02;;;;;;;3.28;0.90;;;;;;;;;;4919223;29;20048;-69
2022/03/19 09:45:29;;;;;;;3.30;1.05;;;;;;;;;;4922373;29;20151;-69
2022/03/19 09:47:56;;;;;;;4.75;1.42;;;;;;;;;;4921261;29;20686;-69
2022/03/19 09:50:23;;;;;;;3.40;1.08;;;;;;;;;;4920719;29;20098;-69
2022/03/19 09:52:51;;;;;;;3.80;1.17;;;;;;;;;;4920231;29;20143;-68
2022/03/19 09:55:26;;;;;;;2.22;0.90;;;;;;;;;;4921337;29;20082;-69
2022/03/19 09:57:54;;;;;;;2.50;0.98;;;;;;;;;;4917232;29;20044;-69
2022/03/19 10:00:24;;;;;;;3.15;0.82;;;;;;;;;;4919510;29;20103;-68
2022/03/19 10:02:53;;;;;;;3.47;1.10;;;;;;;;;;4918883;29;20060;-70
2022/03/19 10:10:50;;;;;;;2.70;1.08;;;;;;;;;;4917508;29;20086;-69
2022/03/19 10:13:17;;;;;;;6.07;1.33;;;;;;;;;;4920667;29;20571;-71
2022/03/19 10:15:44;;;;;;;4.13;1.20;;;;;;;;;;4921089;29;20084;-68
2022/03/19 10:18:11;;;;;;;5.60;1.10;;;;;;;;;;4920749;28;20083;-70
2022/03/19 10:20:37;;;;;;;3.40;1.30;;;;;;;;;;4917506;29;20055;-70
2022/03/19 10:23:06;;;;;;;2.28;1.00;;;;;;;;;;4918508;29;20134;-69
2022/03/19 10:25:33;;;;;;;3.05;0.85;;;;;;;;;;4918180;29;20082;-70
2022/03/19 10:28:00;;;;;;;5.72;1.10;;;;;;;;;;4918997;29;20139;-70
2022/03/19 10:30:33;;;;;;;4.05;0.98;;;;;;;;;;4916498;29;20138;-69
2022/03/19 10:33:01;;;;;;;4.97;1.05;;;;;;;;;;4916406;29;20072;-68
2022/03/19 10:35:29;;;;;;;3.25;1.00;;;;;;;;;;4920534;29;20191;-70
2022/03/19 10:37:55;;;;;;;;;;;;;;;;;;4923748;29;20048;-69
2022/03/19 10:40:35;;;;;;;4.40;1.20;;;;;;;;;;4923321;29;20306;-69
2022/03/19 10:43:04;;;;;;;3.92;1.13;;;;;;;;;;4922970;29;20170;-69
2022/03/19 10:45:31;;;;;;;5.03;1.30;;;;;;;;;;4923192;29;20180;-69
2022/03/19 10:48:00;;;;;;;3.72;1.23;;;;;;;;;;4921992;29;20056;-69
2022/03/19 10:50:26;;;;;;;5.07;1.33;;;;;;;;;;4921346;29;20052;-69
2022/03/19 10:52:56;;;;;;;6.60;1.20;;;;;;;;;;4924942;29;20147;-69
2022/03/19 10:55:22;;;;;;;5.40;1.10;;;;;;;;;;4920719;29;20567;-69
2022/03/19 10:57:49;;;;;;;2.83;0.85;;;;;;;;;;4923633;29;20122;-69
2022/03/19 11:00:20;;;;;;;5.40;1.20;;;;;;;;;;4924158;29;20052;-69
2022/03/19 11:02:48;;;;;;;;;;;;;;;;;;4925662;29;20086;-69
2022/03/19 11:05:17;;;;;;;3.22;1.27;;;;;;;;;;4918765;29;19930;-70
2022/03/19 11:07:45;;;;;;;5.18;1.20;;;;;;;;;;4920055;29;20148;-69
2022/03/19 11:10:11;;;;;;;3.78;1.17;;;;;;;;;;4922841;29;20115;-69
2022/03/19 11:12:42;;;;;;;3.55;1.42;;;;;;;;;;4919844;29;20407;-69
2022/03/19 11:15:09;;;;;;;3.08;1.13;;;;;;;;;;4916429;29;20960;-69
2022/03/19 11:17:38;;;;;;;7.47;1.50;;;;;;;;;;4911549;29;20155;-68
2022/03/19 11:20:08;;;;;;;5.72;1.50;;;;;;;;;;4910739;29;20515;-69
2022/03/19 11:22:40;;;;;;;3.40;1.25;;;;;;;;;;4901177;29;20112;-69
2022/03/19 11:25:07;;;;;;;3.95;1.15;;;;;;;;;;4914366;29;20142;-69
2022/03/19 11:27:38;;;;;;;3.13;1.20;;;;;;;;;;4895096;29;20139;-70
2022/03/19 11:30:05;;;;;;;;;;;;;;;;;;4910815;29;20146;-69
2022/03/19 11:32:31;;;;;;;4.65;1.60;;;;;;;;;;4910412;29;20046;-70
2022/03/19 11:34:59;;;;;;;2.63;1.23;;;;;;;;;;4911180;29;20044;-69
2022/03/19 11:37:45;;;;;;;3.22;1.13;;;;;;;;;;4911446;29;20163;-69
2022/03/19 11:40:11;;;;;;;5.28;1.60;;;;;;;;;;4911390;29;20090;-69
2022/03/19 11:43:01;;;;;;;6.30;1.77;;;;;;;;;;4910461;29;20059;-69
2022/03/19 11:45:48;;;;;;;6.28;2.08;;;;;;;;;;4922400;29;20052;-69
2022/03/19 11:48:33;;;;;;;3.42;1.20;;;;;;;;;;4911397;29;20549;-69
2022/03/19 11:51:18;;;;;;;2.90;1.42;;;;;;;;;;4919402;29;20547;-69
2022/03/19 11:53:55;;;;;;;4.28;1.27;;;;;;;;;;4916345;29;20082;-69
2022/03/19 11:56:40;;;;;;;3.78;1.35;;;;;;;;;;4922388;29;20158;-69
2022/03/19 11:59:16;;;;;;;3.65;1.20;;;;;;;;;;4925322;29;20494;-69
2022/03/19 12:01:47;;;;;;;5.53;1.52;;;;;;;;;;4919630;29;20135;-69
2022/03/19 12:04:15;;;;;;;1.92;0.93;;;;;;;;;;4917383;29;20062;-69
2022/03/19 12:06:57;;;;;;;3.65;1.38;;;;;;;;;;4922837;29;20067;-69
2022/03/19 12:09:53;;;;;;;7.18;1.05;;;;;;;;;;4920806;29;20135;-69
2022/03/19 12:12:26;;;;;;;3.55;1.10;;;;;;;;;;4908378;29;20056;-69
2022/03/19 12:14:54;;;;;;;3.80;1.40;;;;;;;;;;4918165;29;20079;-69
2022/03/19 12:17:23;;;;;;;4.13;1.42;;;;;;;;;;4925205;29;20091;-69
2022/03/19 12:19:53;;;;;;;3.15;1.13;;;;;;;;;;4919636;29;20603;-70
2022/03/19 12:22:41;;;;;;;5.15;1.20;;;;;;;;;;4923476;29;20551;-69
2022/03/19 12:25:12;;;;;;;3.90;1.65;;;;;;;;;;4918202;29;20094;-69
2022/03/19 12:27:40;;;;;;;5.57;1.48;;;;;;;;;;4907678;29;20161;-69
2022/03/19 12:30:08;;;;;;;3.42;1.55;;;;;;;;;;4919164;29;20453;-69
2022/03/19 12:32:44;;;;;;;5.25;2.00;;;;;;;;;;4921085;29;20056;-69
2022/03/19 12:35:11;;;;;;;3.20;1.20;;;;;;;;;;4925086;29;20090;-69
2022/03/19 12:37:47;;;;;;;3.40;1.38;;;;;;;;;;4922545;29;20059;-69
2022/03/19 12:40:18;;;;;;;8.27;2.13;;;;;;;;;;4924487;29;20132;-69
2022/03/19 12:42:49;;;;;;;3.28;1.10;;;;;;;;;;4919867;29;20139;-69
2022/03/19 12:45:16;;;;;;;4.22;1.52;;;;;;;;;;4910564;29;20087;-69
2022/03/19 12:47:42;;;;;;;6.07;1.48;;;;;;;;;;4910216;29;20134;-69
2022/03/19 12:50:09;;;;;;;6.32;1.40;;;;;;;;;;4910361;29;20810;-69
2022/03/19 12:52:42;;;;;;;2.85;1.02;;;;;;;;;;4908115;29;20170;-69
2022/03/19 12:55:17;;;;;;;3.72;1.60;;;;;;;;;;4908316;29;20139;-69
2022/03/19 12:57:53;;;;;;;4.70;1.27;;;;;;;;;;4908041;29;20143;-69
2022/03/19 13:00:19;;;;;;;7.40;1.13;;;;;;;;;;4912344;29;20135;-69
2022/03/19 13:02:50;;;;;;;4.70;1.17;;;;;;;;;;4908534;29;20082;-69
2022/03/19 13:05:16;;;;;;;3.65;1.17;;;;;;;;;;4907425;29;20055;-69
2022/03/19 13:08:02;;;;;;;3.17;1.25;;;;;;;;;;4907579;29;20491;-69
2022/03/19 13:10:39;;;;;;;3.90;1.35;;;;;;;;;;4909301;29;21695;-69
2022/03/19 13:13:06;;;;;;;4.07;1.17;;;;;;;;;;4900558;29;20062;-69
2022/03/19 13:15:33;;;;;;;2.63;1.13;;;;;;;;;;4909174;29;20062;-69
2022/03/19 13:18:00;;;;;;;4.05;1.35;;;;;;;;;;4923135;29;20059;-69
2022/03/19 13:20:26;;;;;;;4.57;1.25;;;;;;;;;;4909944;29;21011;-69
2022/03/19 13:23:01;;;;;;;3.10;1.50;;;;;;;;;;4914099;29;20056;-69
2022/03/19 13:25:31;;;;;;;3.20;1.33;;;;;;;;;;4904844;29;20087;-69
2022/03/19 13:28:01;;;;;;;6.25;1.77;;;;;;;;;;4909154;29;20048;-69
2022/03/19 13:30:28;;;;;;;6.88;1.77;;;;;;;;;;4907604;29;20083;-69
2022/03/19 13:32:58;;;;;;;3.78;1.27;;;;;;;;;;4905609;29;20143;-70
2022/03/19 13:35:34;;;;;;;5.38;1.63;;;;;;;;;;4909335;29;20056;-69
2022/03/19 13:38:07;;;;;;;4.03;1.92;;;;;;;;;;4911017;29;20051;-70
2022/03/19 13:40:34;;;;;;;7.97;2.40;;;;;;;;;;4918234;29;20083;-69
2022/03/19 13:43:00;;;;;;;4.25;1.60;;;;;;;;;;4915828;29;20102;-69
2022/03/19 13:45:27;;;;;;;7.63;1.60;;;;;;;;;;4921978;29;20508;-69
2022/03/19 13:48:00;;;;;;;3.35;1.52;;;;;;;;;;4916002;29;20534;-69
2022/03/19 13:50:27;;;;;;;6.03;2.05;;;;;;;;;;4920684;29;20143;-69
2022/03/19 13:52:59;;;;;;;9.20;1.65;;;;;;;;;;4921252;29;20138;-69
2022/03/19 13:55:28;;;;;;;3.72;1.58;;;;;;;;;;4919051;29;20151;-69
2022/03/19 13:57:56;;;;;;;6.15;1.95;;;;;;;;;;4918314;29;20135;-69
2022/03/19 14:00:27;;;;;;;3.80;1.27;;;;;;;;;;4917500;29;20080;-69
2022/03/19 14:02:54;;;;;;;5.30;1.40;;;;;;;;;;4920482;29;20076;-69
2022/03/19 14:05:22;;;;;;;4.35;1.38;;;;;;;;;;4918563;29;20100;-68
2022/03/19 14:07:49;;;;;;;;;;;;;;;;;;4917830;29;20516;-70
2022/03/19 14:10:15;;;;;;;5.55;2.50;;;;;;;;;;4919330;29;20457;-69
2022/03/19 14:12:43;;;;;;;3.80;1.40;;;;;;;;;;4918521;29;20186;-69
2022/03/19 14:15:14;;;;;;;3.30;1.70;;;;;;;;;;4922779;29;20416;-69
2022/03/19 14:17:45;;;;;;;3.03;1.25;;;;;;;;;;4919110;29;20139;-68
2022/03/19 14:20:11;;;;;;;4.05;1.60;;;;;;;;;;4922518;29;20086;-69
2022/03/19 14:22:38;;;;;;;4.38;1.70;;;;;;;;;;4921019;29;20051;-69
2022/03/19 14:25:05;;;;;;;3.67;1.25;;;;;;;;;;4923509;29;20076;-69
2022/03/19 14:27:31;;;;;;;4.27;1.10;;;;;;;;;;4926051;29;20079;-68
2022/03/19 14:30:17;;;;;;;2.72;0.95;;;;;;;;;;4918078;29;20067;-69
2022/03/19 14:32:45;;;;;;;4.20;1.30;;;;;;;;;;4923458;29;20147;-68
2022/03/19 14:35:40;;;;;;;3.65;1.10;;;;;;;;;;4920653;29;20130;-68
2022/03/19 14:38:07;;;;;;;8.32;1.50;;;;;;;;;;4921186;29;20051;-69
2022/03/19 14:40:34;;;;;;;3.67;1.33;;;;;;;;;;4924340;29;20755;-69
2022/03/19 14:43:02;;;;;;;2.22;1.30;;;;;;;;;;4922727;29;20167;-69
2022/03/19 14:45:29;;;;;;;2.72;1.15;;;;;;;;;;4916876;29;20084;-68
2022/03/19 14:47:56;;;;;;;2.50;1.05;;;;;;;;;;4923394;29;20048;-70
2022/03/19 14:50:22;;;;;;;2.65;0.75;;;;;;;;;;4921635;29;20052;-68
2022/03/19 14:52:49;;;;;;;2.87;1.37;;;;;;;;;;4920258;29;20107;-69
2022/03/19 14:55:16;;;;;;;2.10;1.10;;;;;;;;;;4920856;29;20147;-68
2022/03/19 14:57:42;;;;;;;4.15;1.30;;;;;;;;;;4924758;29;20188;-68
2022/03/19 15:00:10;;;;;;;3.53;1.30;;;;;;;;;;4922810;29;20088;-69
2022/03/19 15:02:37;;;;;;;2.40;0.95;;;;;;;;;;4925361;29;20055;-68
2022/03/19 15:05:04;;;;;;;3.97;1.33;;;;;;;;;;4929988;29;20539;-68
2022/03/19 15:07:31;;;;;;;4.43;1.40;;;;;;;;;;4922462;29;20097;-68
2022/03/19 15:09:58;;;;;;;6.72;1.20;;;;;;;;;;4920062;29;20546;-69
2022/03/19 15:12:24;;;;;;;4.00;1.20;;;;;;;;;;4918776;29;20052;-69
2022/03/19 15:14:52;;;;;;;4.22;1.13;;;;;;;;;;4921232;29;20482;-69